East Jordan, Michigan
Current Conditions -  °F | °C
As of 1:34 PM on Sunday 21 Dec 2014 (Local Time) from KCVX Reporting Station
Haze Haze  
Wind Chill: -4°   Ceiling: 1400
Heat Index:   Visibility: 5mi
Dew Point: -2°   Wind: 7mph
Humidity: 90%   Direction: 150°SSE
Pressure: 30.16"   Gusts: NA
Location:  45.16°N, 85.12°W
Report Text: KCVX 211834Z AUTO 15006KT 5SM BR BKN014 OVC020 00/M01 A3016 RMK AO2 T00001015
Loading
Personal Weather Stations






























Interactive Weather Map New forecast layout! Learn more

10-Day Weather Forecast

Advertisements
Track Severe Weather on mobile